White Clay, Arizona
Current Conditions -  °F | °C
As of 12:53 PM on Friday 31 Oct 2014 (Local Time) from KRQE Reporting Station
Clear Clear  
Wind Chill: 68°   Ceiling: Unl
Heat Index: 68°   Visibility: 10mi
Dew Point: 28°   Wind: 7mph
Humidity: 22%   Direction: NA
Pressure: 30.26"   Gusts: NA
Location:  35.7684°N, 109.076°W
Report Text: KRQE 311853Z AUTO VRB06KT 10SM CLR 20/M02 A3026 RMK AO2 SLP174 T02001022 TSNO
Loading
Personal Weather Stations






























Interactive Weather Map
Tropical Storm Tracking
New forecast layout! Learn more

10-Day Weather Forecast

Advertisements
Track Severe Weather on mobile